Terminal Aerodrome Forecast
Issued by NWS

Home | Current Version | Previous Version | Graphics & Text | Print | Product List | Glossary On
Versions: 1 2 3 4 5 6 7 8 9 10 11 12 13 14 15
291
FTUS45 KGGW 182325
TAFSDY
TAF
KSDY 182325Z 1900/1924 02008KT P6SM SCT100
     FM190300 06005KT P6SM SCT120
     FM190900 11004KT P6SM BKN120 WS020/17030KT
     FM191200 12004KT P6SM VCSH BKN110 PROB30 1912/1918 6SM TS
      OVC040CB
     FM191800 09008KT P6SM SCT110=

USA.gov is the U.S. government's official web portal to all federal, state and local government web resources and services.